Time;durP1;ratioP1;P1;durP2;ratioP2;P2;SDS_P1;SDS_P2;PMS_P1;PMS_P2;Temp;Humidity;BMP_temperature;BMP_pressure;BME280_temperature;BME280_humidity;BME280_pressure;Samples;Min_cycle;Max_cycle;Signal;HPM_P1;HPM_P2
2022/09/26 00:01:41;;;;;;;32.90;29.50;;;;;;;7.58;98.11;97190.29;105512;1283;22555;-87
2022/09/26 00:04:28;;;;;;;31.40;28.70;;;;;;;7.61;97.72;97186.64;105522;1283;22537;-86
2022/09/26 00:06:59;;;;;;;30.80;28.00;;;;;;;7.66;97.68;97187.05;105550;1282;23387;-87
2022/09/26 00:09:27;;;;;;;30.10;27.30;;;;;;;7.71;97.78;97183.23;105430;1282;22543;-86
2022/09/26 00:11:55;;;;;;;30.60;27.80;;;;;;;7.72;98.34;97183.66;105596;1282;25298;-87
2022/09/26 00:14:26;;;;;;;33.80;30.60;;;;;;;7.62;98.16;97182.43;105553;1282;25394;-87
2022/09/26 00:16:55;;;;;;;35.60;32.20;;;;;;;7.55;98.10;97176.19;105611;1282;22664;-86
2022/09/26 00:19:23;;;;;;;36.50;33.40;;;;;;;7.53;98.27;97174.08;105606;1282;24214;-87
2022/09/26 00:21:51;;;;;;;37.90;34.50;;;;;;;7.56;98.45;97169.96;105544;1282;22699;-86
2022/09/26 00:24:19;;;;;;;31.50;27.60;;;;;;;7.61;98.22;97169.92;105427;1282;25549;-86
2022/09/26 00:26:47;;;;;;;30.70;27.90;;;;;;;7.62;97.73;97165.98;105486;1281;25306;-87
2022/09/26 00:29:16;;;;;;;112.50;100.80;;;;;;;7.64;97.87;97159.18;105472;1282;23946;-88
2022/09/26 00:31:46;;;;;;;41.80;38.10;;;;;;;7.65;98.01;97165.13;105466;1282;24267;-89
2022/09/26 00:34:18;;;;;;;39.70;35.90;;;;;;;7.59;98.03;97159.27;105442;1282;22717;-87
2022/09/26 00:36:48;;;;;;;39.10;35.60;;;;;;;7.51;98.21;97156.96;105408;1282;23950;-90
2022/09/26 00:39:16;;;;;;;37.00;33.60;;;;;;;7.53;98.60;97155.48;105514;1282;22787;-88
2022/09/26 00:41:44;;;;;;;34.00;31.00;;;;;;;7.58;98.15;97156.79;105748;1282;24232;-91
2022/09/26 00:44:40;;;;;;;30.00;27.20;;;;;;;7.56;97.65;97155.96;106111;1282;22497;-88
2022/09/26 00:47:46;;;;;;;30.30;27.60;;;;;;;7.58;97.83;97154.52;105602;1282;25238;-87
2022/09/26 00:50:14;;;;;;;38.80;35.50;;;;;;;7.56;98.10;97153.17;106048;1282;22635;-88
2022/09/26 00:52:52;;;;;;;33.20;30.10;;;;;;;7.58;98.31;97150.02;105511;1282;23956;-88
2022/09/26 00:55:24;;;;;;;30.50;28.00;;;;;;;7.60;98.59;97148.02;105514;1282;24687;-87
2022/09/26 00:57:58;;;;;;;31.00;28.30;;;;;;;7.59;98.67;97148.52;105451;1282;22894;-87
2022/09/26 01:00:27;;;;;;;29.90;27.30;;;;;;;7.63;99.08;97143.66;105440;1282;22953;-88
2022/09/26 01:02:55;;;;;;;28.10;25.40;;;;;;;7.68;99.56;97138.24;105410;1282;23037;-86
2022/09/26 01:05:24;;;;;;;33.70;30.40;;;;;;;7.72;100.00;97140.46;105370;1282;22664;-88
2022/09/26 01:07:55;;;;;;;34.10;31.10;;;;;;;7.77;100.00;97141.67;105361;1282;24268;-87
2022/09/26 01:10:27;;;;;;;36.00;33.00;;;;;;;7.84;100.00;97142.70;105432;1282;23935;-88
2022/09/26 01:13:00;;;;;;;37.50;34.10;;;;;;;7.92;100.00;97138.94;105432;1282;24731;-88
2022/09/26 01:15:28;;;;;;;30.30;27.70;;;;;;;8.00;100.00;97140.82;105501;1282;24291;-87
2022/09/26 01:17:57;;;;;;;30.70;28.20;;;;;;;8.05;99.92;97142.81;105373;1282;22864;-88
2022/09/26 01:20:28;;;;;;;32.30;29.40;;;;;;;8.10;99.90;97139.60;105424;1282;22547;-86
2022/09/26 01:23:08;;;;;;;36.00;33.10;;;;;;;8.19;99.92;97137.52;105457;1282;24457;-84
2022/09/26 01:26:03;;;;;;;36.20;33.30;;;;;;;8.27;99.80;97137.64;105469;1282;23328;-85
2022/09/26 01:28:52;;;;;;;35.70;32.70;;;;;;;8.30;99.67;97139.13;105236;1282;25535;-86
2022/09/26 01:31:20;;;;;;;33.50;30.60;;;;;;;8.28;99.83;97134.21;105489;1282;22778;-86
2022/09/26 01:34:33;;;;;;;31.50;28.60;;;;;;;8.29;99.95;97131.55;105510;1282;22618;-85
2022/09/26 01:37:14;;;;;;;31.60;28.60;;;;;;;8.34;99.88;97126.84;105495;1282;25425;-88
2022/09/26 01:40:09;;;;;;;34.00;31.00;;;;;;;8.43;99.95;97126.41;105517;1282;22582;-86
2022/09/26 01:42:50;;;;;;;;;;;;;;;8.53;100.00;97123.87;105494;1282;23136;-86
2022/09/26 01:45:28;;;;;;;38.10;34.80;;;;;;;8.56;100.00;97121.11;105453;1282;23342;-86
2022/09/26 01:48:15;;;;;;;37.50;34.10;;;;;;;8.58;99.83;97115.36;105333;1282;25255;-87
2022/09/26 01:51:02;;;;;;;31.60;28.90;;;;;;;8.56;99.89;97111.38;105487;1282;22871;-86
2022/09/26 01:53:41;;;;;;;30.50;27.90;;;;;;;8.54;100.00;97102.78;105452;1282;22784;-85
2022/09/26 01:56:14;;;;;;;32.20;29.40;;;;;;;8.56;99.96;97102.30;105365;1282;26252;-84
2022/09/26 01:58:58;;;;;;;31.70;28.80;;;;;;;8.57;100.00;97090.73;105488;1282;22560;-84
2022/09/26 02:01:28;;;;;;;;;;;;;;;8.56;100.00;97091.95;105401;1282;22535;-83
2022/09/26 02:04:02;;;;;;;31.30;28.70;;;;;;;8.51;100.00;97087.96;105442;1282;24232;-82
2022/09/26 02:06:50;;;;;;;31.70;28.80;;;;;;;8.47;100.00;97089.15;105442;1282;24025;-84
2022/09/26 02:09:27;;;;;;;33.70;31.10;;;;;;;8.45;100.00;97085.27;105451;1282;22568;-88
2022/09/26 02:12:00;;;;;;;35.80;32.50;;;;;;;8.46;100.00;97082.68;105624;1282;25412;-90
2022/09/26 02:14:33;;;;;;;33.10;30.20;;;;;;;8.46;100.00;97083.39;105288;1283;24384;-87
2022/09/26 02:17:15;;;;;;;32.50;29.70;;;;;;;8.49;100.00;97085.34;105298;1282;22537;-88
2022/09/26 02:19:57;;;;;;;35.10;32.00;;;;;;;8.58;100.00;97091.09;105390;1282;24403;-88
2022/09/26 02:22:32;;;;;;;37.80;34.50;;;;;;;8.68;100.00;97092.73;105398;1282;24306;-89
2022/09/26 02:25:01;;;;;;;33.60;30.60;;;;;;;8.76;100.00;97088.52;105293;1282;22714;-86
2022/09/26 02:27:30;;;;;;;30.60;27.80;;;;;;;8.77;100.00;97085.11;105293;1282;25534;-87
2022/09/26 02:29:58;;;;;;;30.10;27.60;;;;;;;8.78;100.00;97085.27;105327;1282;22584;-87
2022/09/26 02:32:29;;;;;;;33.20;30.30;;;;;;;8.76;100.00;97089.47;105383;1282;24275;-87
2022/09/26 02:34:58;;;;;;;34.20;31.30;;;;;;;8.75;100.00;97089.14;105357;1282;23986;-87
2022/09/26 02:37:29;;;;;;;31.10;28.40;;;;;;;8.74;100.00;97088.95;105319;1282;22565;-88
2022/09/26 02:39:58;;;;;;;33.30;30.20;;;;;;;8.76;100.00;97085.92;105459;1282;22866;-86
2022/09/26 02:42:36;;;;;;;33.90;30.80;;;;;;;8.79;100.00;97084.17;105408;1282;24315;-89
2022/09/26 02:45:25;;;;;;;32.90;30.10;;;;;;;8.83;100.00;97077.55;105790;1282;23864;-89
2022/09/26 02:48:15;;;;;;;38.10;34.60;;;;;;;8.86;100.00;97073.48;105403;1282;25420;-88
2022/09/26 02:50:46;;;;;;;32.80;30.00;;;;;;;8.83;100.00;97066.73;105496;1282;25246;-87
2022/09/26 02:53:39;;;;;;;32.70;29.80;;;;;;;8.79;99.95;97069.14;105936;1282;23492;-90
2022/09/26 02:56:25;;;;;;;32.00;29.30;;;;;;;8.79;99.96;97061.73;105516;1282;25353;-87
2022/09/26 02:59:01;;;;;;;33.80;30.40;;;;;;;8.81;99.99;97058.09;105373;1282;22556;-88
2022/09/26 03:01:54;;;;;;;33.50;30.60;;;;;;;8.83;100.00;97052.83;105370;1282;23985;-87
2022/09/26 03:05:02;;;;;;;35.00;32.20;;;;;;;8.83;99.93;97053.30;105440;1282;25270;-86
2022/09/26 03:07:36;;;;;;;33.90;30.90;;;;;;;8.80;100.00;97050.46;104771;1290;23121;-87
2022/09/26 03:10:07;;;;;;;32.00;29.00;;;;;;;8.81;99.97;97056.70;104781;1290;24495;-89
2022/09/26 03:12:37;;;;;;;31.80;28.90;;;;;;;8.79;99.99;97058.76;104872;1291;22551;-89
2022/09/26 03:15:06;;;;;;;33.10;30.00;;;;;;;8.81;100.00;97053.15;104797;1291;23243;-88
2022/09/26 03:17:38;;;;;;;34.90;32.00;;;;;;;8.77;100.00;97049.36;104774;1290;23249;-87
2022/09/26 03:20:13;;;;;;;43.10;39.10;;;;;;;8.72;100.00;97046.21;104749;1290;22570;-87
2022/09/26 03:22:43;;;;;;;42.60;38.70;;;;;;;8.69;100.00;97041.61;104721;1290;22793;-86
2022/09/26 03:25:18;;;;;;;52.80;47.90;;;;;;;8.69;100.00;97034.83;104757;1290;22597;-86
2022/09/26 03:27:53;;;;;;;45.60;41.00;;;;;;;8.72;100.00;97033.02;104751;1290;25441;-87
2022/09/26 03:30:23;;;;;;;39.00;35.70;;;;;;;8.78;100.00;97030.48;104569;1290;25243;-88
2022/09/26 03:33:10;;;;;;;37.40;34.20;;;;;;;8.88;100.00;97030.13;104746;1291;24320;-88
2022/09/26 03:35:37;;;;;;;37.50;34.10;;;;;;;8.98;100.00;97030.98;104814;1290;25328;-87
2022/09/26 03:38:05;;;;;;;61.20;55.90;;;;;;;9.05;100.00;97028.34;104799;1290;22768;-89
2022/09/26 03:40:41;;;;;;;35.40;32.30;;;;;;;9.09;100.00;97025.39;104837;1290;25372;-88
2022/09/26 03:43:35;;;;;;;34.10;31.00;;;;;;;9.08;100.00;97027.27;104924;1282;23215;-88
2022/09/26 03:46:06;;;;;;;35.00;31.40;;;;;;;9.07;100.00;97027.27;105422;1282;22571;-87
2022/09/26 03:48:34;;;;;;;32.40;29.50;;;;;;;9.07;100.00;97023.91;105545;1282;24101;-89
2022/09/26 03:51:08;;;;;;;33.80;30.70;;;;;;;9.09;100.00;97026.02;105383;1281;25409;-86
2022/09/26 03:53:40;;;;;;;35.60;32.30;;;;;;;9.12;100.00;97024.92;105369;1282;24389;-86
2022/09/26 03:56:14;;;;;;;37.60;34.20;;;;;;;9.19;100.00;97024.38;105446;1282;25351;-87
2022/09/26 03:58:42;;;;;;;36.70;33.50;;;;;;;9.23;100.00;97021.77;105434;1282;25373;-87
2022/09/26 04:01:17;;;;;;;39.70;36.40;;;;;;;9.28;100.00;97021.91;105644;1282;24295;-88
2022/09/26 04:03:47;;;;;;;124.00;106.80;;;;;;;9.32;100.00;97018.19;105834;1282;23340;-89
2022/09/26 04:06:19;;;;;;;112.40;100.90;;;;;;;9.37;100.00;97015.95;105410;1282;25294;-87
2022/09/26 04:08:51;;;;;;;64.00;58.30;;;;;;;9.44;100.00;97016.93;105427;1282;22727;-88
2022/09/26 04:11:23;;;;;;;59.00;53.80;;;;;;;9.50;100.00;97020.58;105384;1282;22702;-87
2022/09/26 04:13:52;;;;;;;41.00;37.50;;;;;;;9.55;100.00;97022.65;105397;1284;22544;-86
2022/09/26 04:16:24;;;;;;;40.70;37.20;;;;;;;9.54;100.00;97026.06;105341;1282;22541;-89
2022/09/26 04:18:57;;;;;;;41.00;37.50;;;;;;;9.52;100.00;97024.41;105464;1282;25366;-89
2022/09/26 04:21:26;;;;;;;40.80;37.00;;;;;;;9.51;100.00;97021.70;105458;1282;25279;-88
2022/09/26 04:23:55;;;;;;;36.90;33.60;;;;;;;9.49;100.00;97020.52;105507;1282;22644;-90
2022/09/26 04:26:23;;;;;;;40.00;36.40;;;;;;;9.52;100.00;97014.61;105421;1282;22544;-86
2022/09/26 04:28:54;;;;;;;57.20;52.10;;;;;;;9.58;100.00;97015.10;105482;1282;23990;-88
2022/09/26 04:31:28;;;;;;;47.40;42.80;;;;;;;9.62;100.00;97012.88;105466;1282;24220;-88
2022/09/26 04:34:03;;;;;;;45.90;42.10;;;;;;;9.66;100.00;97011.84;105374;1281;25339;-88
2022/09/26 04:36:32;;;;;;;43.10;39.50;;;;;;;9.69;100.00;97005.02;105534;1282;25355;-89
2022/09/26 04:39:00;;;;;;;43.70;39.90;;;;;;;9.72;100.00;96997.23;105434;1282;25854;-87
2022/09/26 04:41:30;;;;;;;42.00;38.10;;;;;;;9.78;100.00;96994.94;105841;1282;25307;-88
2022/09/26 04:44:00;;;;;;;41.90;38.20;;;;;;;9.83;100.00;96991.05;105498;1282;24251;-88
2022/09/26 04:46:30;;;;;;;43.90;40.10;;;;;;;9.90;100.00;96992.66;105900;1282;24197;-86
2022/09/26 04:49:00;;;;;;;39.40;35.50;;;;;;;9.95;100.00;96992.52;105668;1282;22661;-86
2022/09/26 04:51:30;;;;;;;43.80;39.90;;;;;;;9.95;100.00;96988.52;105472;1281;22734;-86
2022/09/26 04:53:59;;;;;;;44.70;40.90;;;;;;;9.95;100.00;96983.34;105684;1282;22558;-86
2022/09/26 04:56:29;;;;;;;49.00;44.50;;;;;;;9.96;100.00;96985.05;105750;1282;22557;-85
2022/09/26 04:58:57;;;;;;;36.90;33.60;;;;;;;9.97;100.00;96980.23;105868;1282;22574;-88
2022/09/26 05:01:31;;;;;;;;;;;;;;;10.02;100.00;96977.98;105910;1282;24232;-88
2022/09/26 05:04:08;;;;;;;43.80;39.90;;;;;;;10.08;100.00;96975.98;105796;1282;23936;-88
2022/09/26 05:06:38;;;;;;;41.60;37.70;;;;;;;10.14;100.00;96975.09;105850;1282;22544;-86
2022/09/26 05:09:08;;;;;;;43.90;39.80;;;;;;;10.18;100.00;96973.59;105850;1282;25204;-89
2022/09/26 05:11:56;;;;;;;38.70;35.60;;;;;;;10.22;100.00;96971.46;105830;1282;23477;-84
2022/09/26 05:14:24;;;;;;;40.70;37.40;;;;;;;10.27;100.00;96972.98;107283;1284;22498;-83
2022/09/26 05:16:52;;;;;;;36.40;33.30;;;;;;;10.34;100.00;96974.68;108791;1281;22595;-86
2022/09/26 05:19:20;;;;;;;37.60;34.30;;;;;;;10.43;100.00;96970.08;107985;1282;22992;-84
2022/09/26 05:22:20;;;;;;;38.90;35.70;;;;;;;10.56;100.00;96970.67;107412;1282;22672;-84
2022/09/26 05:27:36;;;;;;;38.40;35.10;;;;;;;10.71;100.00;96967.14;106838;1282;22557;-85
2022/09/26 05:30:04;;;;;;;43.30;39.70;;;;;;;10.75;100.00;96967.32;106640;1282;24322;-86
2022/09/26 05:32:33;;;;;;;42.20;38.30;;;;;;;10.74;100.00;96967.04;107516;1282;25368;-88
2022/09/26 05:35:04;;;;;;;46.10;42.20;;;;;;;10.71;100.00;96968.38;106960;1282;22492;-86
2022/09/26 05:37:36;;;;;;;44.70;40.70;;;;;;;10.71;100.00;96965.31;106118;1282;25220;-88
2022/09/26 05:43:02;;;;;;;41.20;37.50;;;;;;;10.86;100.00;96960.38;108102;1280;22667;-87
2022/09/26 05:45:30;;;;;;;41.10;37.50;;;;;;;10.92;100.00;96960.98;107983;1282;24214;-87
2022/09/26 05:47:59;;;;;;;37.90;34.50;;;;;;;10.97;100.00;96962.42;108079;1282;22565;-87
2022/09/26 05:50:27;;;;;;;38.30;34.90;;;;;;;10.98;100.00;96964.16;108247;1282;22560;-84
2022/09/26 05:53:02;;;;;;;45.10;41.10;;;;;;;10.97;100.00;96961.02;108210;1282;22550;-87
2022/09/26 05:55:33;;;;;;;46.60;42.50;;;;;;;10.92;100.00;96961.94;108184;1282;22533;-87
2022/09/26 05:58:14;;;;;;;44.60;40.00;;;;;;;10.86;100.00;96962.41;108543;1282;23156;-89
2022/09/26 06:01:11;;;;;;;42.80;39.00;;;;;;;10.83;100.00;96959.40;108293;1282;23287;-87
2022/09/26 06:12:50;;;;;;;36.00;32.80;;;;;;;10.68;100.00;96964.42;105538;1282;22699;-87
2022/09/26 06:15:18;;;;;;;35.00;31.70;;;;;;;10.67;100.00;96963.39;105511;1282;23968;-89
2022/09/26 06:17:47;;;;;;;35.50;32.40;;;;;;;10.68;100.00;96961.27;105537;1282;22568;-89
2022/09/26 06:20:16;;;;;;;34.70;31.60;;;;;;;10.68;100.00;96962.43;105636;1282;22566;-89
2022/09/26 06:22:44;;;;;;;37.70;34.40;;;;;;;10.71;100.00;96958.98;105641;1282;22727;-89
2022/09/26 06:25:13;;;;;;;41.70;38.10;;;;;;;10.74;100.00;96958.20;105694;1282;24232;-89
2022/09/26 06:27:41;;;;;;;39.30;35.90;;;;;;;10.79;100.00;96957.55;105664;1282;22632;-92
2022/09/26 06:30:10;;;;;;;34.80;31.70;;;;;;;10.84;100.00;96957.14;105640;1282;23972;-90
2022/09/26 06:32:39;;;;;;;36.10;32.80;;;;;;;10.90;100.00;96957.74;105614;1282;25530;-89
2022/09/26 06:35:36;;;;;;;36.50;33.00;;;;;;;10.97;100.00;96958.72;105128;1283;25226;-89
2022/09/26 06:38:16;;;;;;;33.60;30.50;;;;;;;11.00;100.00;96960.25;106309;1281;25928;-89
2022/09/26 06:40:46;;;;;;;30.80;27.90;;;;;;;11.04;100.00;96956.08;106656;1282;22488;-90
2022/09/26 06:43:14;;;;;;;28.80;26.20;;;;;;;11.10;100.00;96955.96;106100;1282;24458;-89
2022/09/26 06:46:01;;;;;;;31.90;29.10;;;;;;;11.17;100.00;96953.52;106078;1282;25304;-90
2022/09/26 06:48:41;;;;;;;30.00;27.50;;;;;;;11.23;100.00;96952.91;106165;1282;22593;-87
2022/09/26 06:51:20;;;;;;;32.90;29.90;;;;;;;11.29;100.00;96953.01;105977;1282;25253;-88
2022/09/26 06:53:48;;;;;;;34.70;31.50;;;;;;;11.36;100.00;96952.71;105614;1282;25542;-89
2022/09/26 06:56:20;;;;;;;33.70;30.30;;;;;;;11.42;100.00;96951.85;105407;1282;24448;-89
2022/09/26 06:58:48;;;;;;;34.70;31.30;;;;;;;11.48;100.00;96954.40;105393;1281;22578;-89
2022/09/26 07:01:19;;;;;;;35.10;31.90;;;;;;;11.53;100.00;96954.44;105369;1282;23340;-90
2022/09/26 07:04:05;;;;;;;33.40;30.10;;;;;;;11.56;100.00;96953.34;105472;1282;24193;-90
2022/09/26 07:06:37;;;;;;;34.00;30.70;;;;;;;11.61;100.00;96952.26;105439;1282;25630;-90
2022/09/26 07:09:07;;;;;;;32.60;29.60;;;;;;;11.66;100.00;96952.16;105202;1282;24270;-86
2022/09/26 07:11:50;;;;;;;30.80;28.00;;;;;;;11.72;100.00;96951.14;105504;1282;22545;-90
2022/09/26 07:14:38;;;;;;;31.10;27.90;;;;;;;11.76;100.00;96948.50;105474;1282;22799;-88
2022/09/26 07:17:17;;;;;;;31.40;28.60;;;;;;;11.83;100.00;96948.01;105593;1282;24101;-89
2022/09/26 07:20:02;;;;;;;33.40;30.40;;;;;;;11.88;100.00;96947.20;105507;1284;26623;-88
2022/09/26 07:22:50;;;;;;;34.40;31.00;;;;;;;11.89;100.00;96948.34;105327;1282;24847;-89
2022/09/26 07:25:18;;;;;;;39.20;35.60;;;;;;;11.91;100.00;96950.60;105599;1282;22550;-89
2022/09/26 07:27:51;;;;;;;37.30;33.30;;;;;;;11.91;100.00;96951.17;105601;1282;22553;-86
2022/09/26 07:30:22;;;;;;;37.90;34.20;;;;;;;11.90;100.00;96950.99;105557;1282;25312;-88
2022/09/26 07:33:02;;;;;;;40.10;36.70;;;;;;;11.90;100.00;96944.35;105529;1282;22679;-87
2022/09/26 07:35:44;;;;;;;44.90;41.10;;;;;;;11.91;100.00;96944.69;105628;1282;24204;-88
2022/09/26 07:38:13;;;;;;;44.00;40.00;;;;;;;11.94;100.00;96940.58;105554;1282;22728;-89
2022/09/26 07:40:42;;;;;;;43.30;39.20;;;;;;;11.98;100.00;96941.55;105608;1282;25555;-89
2022/09/26 07:43:10;;;;;;;41.20;37.50;;;;;;;12.05;100.00;96943.20;105597;1282;22749;-89
2022/09/26 07:51:48;;;;;;;46.30;42.50;;;;;;;12.17;100.00;96948.48;105560;1282;22618;-84
2022/09/26 07:54:20;;;;;;;42.00;38.30;;;;;;;12.17;100.00;96954.48;105551;1282;24320;-87
2022/09/26 07:57:07;;;;;;;37.70;34.50;;;;;;;12.23;100.00;96954.48;105646;1282;22598;-86
2022/09/26 07:59:53;;;;;;;;;;;;;;;12.27;100.00;96956.26;105621;1282;24360;-86
2022/09/26 08:02:44;;;;;;;44.80;40.80;;;;;;;12.31;100.00;96955.14;105723;1282;22534;-85
2022/09/26 08:05:18;;;;;;;49.30;45.10;;;;;;;12.28;100.00;96962.83;105531;1282;22632;-85
2022/09/26 08:07:48;;;;;;;51.00;46.80;;;;;;;12.23;100.00;96963.89;105771;1282;25246;-90
2022/09/26 08:10:35;;;;;;;50.50;46.00;;;;;;;12.12;100.00;96962.12;106128;1281;23415;-87
2022/09/26 08:13:27;;;;;;;41.30;37.40;;;;;;;12.09;100.00;96965.45;106191;1282;24267;-88
2022/09/26 08:16:19;;;;;;;42.30;38.90;;;;;;;12.07;100.00;96963.47;105943;1282;25090;-89
2022/09/26 08:18:49;;;;;;;39.00;35.40;;;;;;;12.08;100.00;96963.45;105810;1282;23249;-86
2022/09/26 08:21:18;;;;;;;39.80;36.10;;;;;;;12.13;100.00;96962.99;105976;1282;24290;-89
2022/09/26 08:23:46;;;;;;;38.60;34.80;;;;;;;12.20;100.00;96961.45;105898;1282;24218;-87
2022/09/26 08:26:47;;;;;;;39.60;35.70;;;;;;;12.22;100.00;96957.53;105534;1282;24234;-88
2022/09/26 08:29:36;;;;;;;38.60;34.90;;;;;;;12.23;100.00;96959.11;106057;1282;25361;-88
2022/09/26 08:32:04;;;;;;;39.80;36.00;;;;;;;12.30;100.00;96956.58;106019;1282;22761;-85
2022/09/26 08:34:34;;;;;;;39.70;35.90;;;;;;;12.42;100.00;96955.60;105802;1282;24259;-84
2022/09/26 08:37:30;;;;;;;38.00;34.40;;;;;;;12.52;100.00;96953.23;105883;1282;22547;-83
2022/09/26 08:40:27;;;;;;;43.40;39.40;;;;;;;12.59;100.00;96953.40;105395;1282;22645;-85
2022/09/26 08:43:13;;;;;;;50.70;46.20;;;;;;;12.59;100.00;96957.96;105550;1282;22731;-83
2022/09/26 08:46:47;;;;;;;39.60;36.20;;;;;;;12.54;100.00;96958.54;106035;1282;23983;-87
2022/09/26 08:49:30;;;;;;;31.10;28.20;;;;;;;12.46;100.00;96961.06;105931;1282;25291;-83
2022/09/26 08:52:03;;;;;;;29.10;26.50;;;;;;;12.43;100.00;96959.16;106274;1282;22541;-84
2022/09/26 08:54:39;;;;;;;29.10;26.50;;;;;;;12.41;100.00;96962.64;105987;1282;24293;-83
2022/09/26 08:57:33;;;;;;;30.00;27.40;;;;;;;12.37;100.00;96959.34;105726;1282;22734;-82
2022/09/26 09:00:23;;;;;;;30.10;27.30;;;;;;;12.34;100.00;96958.55;106121;1282;25405;-82
2022/09/26 09:03:49;;;;;;;27.80;25.40;;;;;;;12.33;100.00;96958.15;105733;1282;24254;-85
2022/09/26 09:06:17;;;;;;;26.80;24.50;;;;;;;12.32;100.00;96963.42;105562;1285;25431;-84
2022/09/26 09:08:51;;;;;;;28.30;25.80;;;;;;;12.31;100.00;96963.25;105531;1285;22643;-85
2022/09/26 09:11:39;;;;;;;27.20;24.80;;;;;;;12.30;100.00;96963.98;105516;1285;25320;-84
2022/09/26 09:14:26;;;;;;;28.20;25.80;;;;;;;12.25;100.00;96963.90;105637;1285;22886;-83
2022/09/26 09:17:28;;;;;;;28.30;25.80;;;;;;;12.23;100.00;96963.50;105768;1285;22572;-85
2022/09/26 09:20:37;;;;;;;27.60;25.30;;;;;;;12.24;100.00;96960.33;105725;1285;22633;-85
2022/09/26 09:23:41;;;;;;;52.60;34.40;;;;;;;12.28;100.00;96959.14;105510;1285;22655;-86
2022/09/26 09:26:30;;;;;;;42.90;33.80;;;;;;;12.31;100.00;96956.05;105901;1285;22616;-85
2022/09/26 09:29:26;;;;;;;37.10;32.00;;;;;;;12.34;100.00;96958.64;105218;1285;25593;-85
2022/09/26 09:32:19;;;;;;;33.90;30.40;;;;;;;12.42;100.00;96958.36;105356;1285;23372;-86
2022/09/26 09:35:15;;;;;;;33.80;30.40;;;;;;;12.49;100.00;96955.68;105472;1285;24219;-84
2022/09/26 09:38:18;;;;;;;41.60;37.90;;;;;;;12.60;100.00;96958.82;105807;1282;25604;-85
2022/09/26 09:41:25;;;;;;;44.10;40.40;;;;;;;12.68;100.00;96950.93;105479;1282;22967;-85
2022/09/26 09:43:57;;;;;;;39.00;35.60;;;;;;;12.82;100.00;96950.85;105768;1282;22560;-85
2022/09/26 09:46:40;;;;;;;31.00;28.40;;;;;;;12.90;100.00;96951.39;106051;1282;22541;-86
2022/09/26 09:49:08;;;;;;;29.70;27.00;;;;;;;12.95;100.00;96948.02;105974;1282;25481;-85
2022/09/26 09:52:03;;;;;;;28.40;25.80;;;;;;;13.03;100.00;96944.64;105856;1282;24277;-85
2022/09/26 09:55:06;;;;;;;29.40;26.90;;;;;;;13.09;100.00;96942.46;105820;1282;155688;-85
2022/09/26 09:58:03;;;;;;;26.30;23.70;;;;;;;13.21;100.00;96941.52;106028;1282;22637;-86
2022/09/26 10:00:36;;;;;;;25.90;23.50;;;;;;;13.28;100.00;96941.73;105798;1282;22595;-86
2022/09/26 10:03:54;;;;;;;24.50;22.40;;;;;;;13.37;100.00;96939.31;105732;1282;22782;-87
2022/09/26 10:06:24;;;;;;;24.10;21.80;;;;;;;13.53;100.00;96938.48;105094;1290;22823;-88
2022/09/26 10:09:37;;;;;;;23.60;21.40;;;;;;;13.71;100.00;96935.85;105419;1290;24299;-88
2022/09/26 10:12:29;;;;;;;25.40;22.80;;;;;;;13.99;100.00;96936.39;105279;1290;22572;-88
2022/09/26 10:15:26;;;;;;;23.50;21.50;;;;;;;14.15;100.00;96941.04;104969;1291;25550;-89
2022/09/26 10:18:17;;;;;;;23.30;21.10;;;;;;;14.30;100.00;96938.48;105366;1290;24003;-86
2022/09/26 10:21:16;;;;;;;25.50;22.80;;;;;;;14.52;100.00;96935.36;105205;1290;23460;-85
2022/09/26 10:23:50;;;;;;;20.50;18.70;;;;;;;14.71;100.00;96934.70;105048;1290;23998;-87
2022/09/26 10:26:33;;;;;;;17.50;15.90;;;;;;;14.93;100.00;96930.13;105518;1290;22585;-88
2022/09/26 10:29:32;;;;;;;18.90;17.20;;;;;;;15.00;99.99;96933.56;105374;1290;22600;-88
2022/09/26 10:32:02;;;;;;;17.80;16.20;;;;;;;15.04;99.92;96936.60;105000;1290;24544;-88
2022/09/26 10:34:37;;;;;;;19.00;17.00;;;;;;;15.19;100.00;96937.04;105151;1290;24275;-86
2022/09/26 10:37:19;;;;;;;17.30;15.80;;;;;;;15.25;99.37;96938.89;105336;1290;22578;-87
2022/09/26 10:42:43;;;;;;;28.00;21.70;;;;;;;15.18;98.54;96938.34;105522;1282;22577;-87
2022/09/26 10:45:19;;;;;;;46.90;27.80;;;;;;;15.19;98.84;96934.24;105720;1283;22565;-87
2022/09/26 10:48:20;;;;;;;17.70;16.00;;;;;;;15.16;98.07;96930.70;106428;1282;22548;-93
2022/09/26 10:51:08;;;;;;;16.10;14.50;;;;;;;15.07;97.53;96930.00;107054;1282;23131;-91
2022/09/26 10:53:44;;;;;;;20.70;18.80;;;;;;;15.01;97.64;96929.09;106854;1282;22566;-91
2022/09/26 10:56:25;;;;;;;15.90;14.20;;;;;;;15.05;98.35;96928.48;107231;1282;23411;-89
2022/09/26 10:59:09;;;;;;;15.30;13.90;;;;;;;15.17;98.31;96924.11;107789;1282;23033;-93
2022/09/26 11:01:50;;;;;;;17.10;15.50;;;;;;;15.34;98.07;96915.21;107379;1283;25237;-93
2022/09/26 11:07:42;;;;;;;17.40;14.20;;;;;;;15.62;97.25;96908.91;107778;1279;22602;-92
2022/09/26 11:10:40;;;;;;;14.50;13.20;;;;;;;15.69;96.41;96904.19;107625;1279;25368;-89
2022/09/26 11:13:24;;;;;;;15.50;14.10;;;;;;;15.61;95.71;96901.91;108843;1280;24077;-92
2022/09/26 11:16:00;;;;;;;15.90;14.40;;;;;;;15.53;95.55;96903.05;108496;1280;23888;-94
2022/09/26 11:18:35;;;;;;;17.80;15.40;;;;;;;15.51;95.78;96899.29;108511;1280;22485;-93
2022/09/26 11:21:38;;;;;;;15.30;13.80;;;;;;;15.49;95.33;96896.77;108261;1280;22627;-91
2022/09/26 11:24:27;;;;;;;17.40;15.70;;;;;;;15.48;95.23;96895.66;108711;1280;22576;-94
2022/09/26 11:27:19;;;;;;;15.50;14.20;;;;;;;15.47;95.43;96880.59;108377;1280;22599;-90
2022/09/26 11:30:11;;;;;;;18.00;16.20;;;;;;;15.58;95.04;96885.80;109213;1268;23035;31
2022/09/26 11:32:55;;;;;;;16.30;14.70;;;;;;;15.55;92.39;96885.18;109143;1268;22495;31
2022/09/26 11:38:54;;;;;;;14.60;13.10;;;;;;;15.49;91.94;96884.73;107972;1280;22583;-94
2022/09/26 11:44:19;;;;;;;16.60;15.10;;;;;;;15.43;92.13;96879.81;107814;1281;22673;-91
2022/09/26 11:47:33;;;;;;;19.50;17.50;;;;;;;15.42;93.08;96875.52;107052;1281;25256;-90
2022/09/26 11:50:22;;;;;;;19.70;17.90;;;;;;;15.49;91.84;96877.92;106271;1282;24278;-89
2022/09/26 11:53:39;;;;;;;19.80;17.90;;;;;;;15.43;91.35;96875.54;106383;1282;24274;-91
2022/09/26 11:56:33;;;;;;;20.90;19.00;;;;;;;15.42;91.97;96875.98;106846;1282;26586;-91
2022/09/26 11:59:19;;;;;;;15.10;13.70;;;;;;;15.54;92.66;96866.14;106281;1282;25516;-92
2022/09/26 12:02:14;;;;;;;12.30;11.20;;;;;;;15.75;90.90;96865.76;106303;1281;25527;-90
2022/09/26 12:05:12;;;;;;;14.30;11.90;;;;;;;15.95;87.92;96868.70;106522;1281;25286;-92
2022/09/26 12:07:52;;;;;;;12.30;11.10;;;;;;;15.94;84.88;96867.98;106677;1281;22563;-91
2022/09/26 12:10:45;;;;;;;13.50;12.10;;;;;;;15.85;86.12;96868.06;107014;1282;22715;-91
2022/09/26 12:13:48;;;;;;;13.60;12.00;;;;;;;15.98;88.57;96865.49;107613;1284;23301;-91
2022/09/26 12:16:17;;;;;;;12.50;11.20;;;;;;;16.04;85.98;96857.23;107338;1285;22693;-90
2022/09/26 12:19:04;;;;;;;12.40;11.10;;;;;;;16.06;86.22;96867.14;107285;1284;22596;-93
2022/09/26 12:22:27;;;;;;;14.50;13.10;;;;;;;16.12;87.21;96862.82;107356;1283;24376;-89
2022/09/26 12:24:50;;;;;;;15.50;14.10;;;;;;;16.25;87.20;96869.90;108206;1284;22598;-89
2022/09/26 12:27:36;;;;;;;14.70;13.40;;;;;;;16.32;86.22;96870.95;107591;1283;22594;-90
2022/09/26 12:30:14;;;;;;;16.30;14.80;;;;;;;16.34;86.65;96866.64;108502;1284;22597;-94
2022/09/26 12:32:55;;;;;;;11.80;10.60;;;;;;;16.49;84.74;96865.05;108405;1284;22593;-92
2022/09/26 12:35:43;;;;;;;12.60;9.00;;;;;;;16.57;84.03;96860.19;108801;1268;23839;-86
2022/09/26 12:38:19;;;;;;;12.50;10.50;;;;;;;16.64;83.44;96858.14;108829;1280;22597;-87